createdAt,value
2023-02-13T00:01:15.184Z,88.90
2023-02-13T00:05:05.330Z,74.50
2023-02-13T00:08:54.031Z,76.00
2023-02-13T00:12:41.710Z,84.40
2023-02-13T00:16:38.220Z,70.50
2023-02-13T00:28:32.427Z,79.80
2023-02-13T00:32:21.810Z,71.00
2023-02-13T00:36:10.844Z,57.60
2023-02-13T00:39:59.786Z,60.10
2023-02-13T00:43:48.880Z,57.60
2023-02-13T00:47:38.117Z,62.70
2023-02-13T00:51:27.324Z,57.00
2023-02-13T01:06:56.878Z,64.00
2023-02-13T01:10:46.251Z,55.10
2023-02-13T01:14:35.504Z,54.40
2023-02-13T01:18:24.560Z,57.00
2023-02-13T01:22:16.857Z,50.40
2023-02-13T01:26:06.259Z,61.00
2023-02-13T01:29:55.453Z,51.00
2023-02-13T01:33:44.832Z,51.70
2023-02-13T01:37:34.251Z,47.80
2023-02-13T01:41:26.193Z,45.40
2023-02-13T01:45:29.154Z,43.20
2023-02-13T02:01:14.936Z,50.40
2023-02-13T02:05:16.255Z,36.60
2023-02-13T02:09:05.329Z,36.40
2023-02-13T02:13:10.377Z,33.10
2023-02-13T02:28:59.626Z,50.80
2023-02-13T02:33:09.982Z,41.60
2023-02-13T02:45:18.261Z,38.30
2023-02-13T02:49:05.718Z,38.70
2023-02-13T03:05:06.134Z,44.90
2023-02-13T03:08:53.832Z,42.00
2023-02-13T03:12:41.287Z,42.30
2023-02-13T03:16:31.745Z,46.50
2023-02-13T03:23:52.746Z,45.70
2023-02-13T03:27:45.968Z,45.50
2023-02-13T03:43:57.013Z,52.40
2023-02-13T03:47:44.689Z,49.40
2023-02-13T03:51:34.353Z,59.00
2023-02-13T03:55:20.013Z,55.30
2023-02-13T03:59:10.345Z,51.50
2023-02-13T04:10:42.925Z,64.60
2023-02-13T04:14:34.624Z,50.60
2023-02-13T04:18:33.031Z,61.00
2023-02-13T04:30:46.375Z,65.60
2023-02-13T04:34:34.551Z,59.60
2023-02-13T04:38:22.165Z,58.80
2023-02-13T04:42:09.766Z,61.40
2023-02-13T04:45:57.338Z,54.90
2023-02-13T04:49:47.766Z,57.20
2023-02-13T04:53:37.142Z,52.70
2023-02-13T04:57:25.949Z,53.90
2023-02-13T05:17:10.112Z,35.40
2023-02-13T05:20:58.038Z,41.80
2023-02-13T05:24:45.878Z,40.70
2023-02-13T05:28:32.288Z,38.80
2023-02-13T05:32:18.788Z,37.50
2023-02-13T05:36:06.532Z,42.70
2023-02-13T05:39:54.163Z,46.10
2023-02-13T05:43:32.381Z,46.80
2023-02-13T05:47:20.039Z,43.30
2023-02-13T05:51:03.156Z,43.00
2023-02-13T05:54:40.579Z,44.10
2023-02-13T05:58:00.082Z,47.00
2023-02-13T06:01:33.279Z,48.50
2023-02-13T06:05:19.310Z,39.80
2023-02-13T06:08:30.052Z,45.60
2023-02-13T06:11:25.191Z,47.80
2023-02-13T06:34:31.677Z,53.50
2023-02-13T06:38:18.267Z,98.40
2023-02-13T06:42:00.513Z,64.90
2023-02-13T06:45:39.867Z,54.30
2023-02-13T06:49:12.108Z,42.10
2023-02-13T06:52:45.581Z,33.50
2023-02-13T06:56:26.821Z,33.90
2023-02-13T07:00:16.396Z,39.00
2023-02-13T07:36:47.914Z,26.70
2023-02-13T07:40:09.779Z,25.20
2023-02-13T07:43:43.635Z,26.90
2023-02-13T07:47:32.541Z,29.60
2023-02-13T08:01:45.961Z,29.20
2023-02-13T08:05:15.944Z,24.60
2023-02-13T08:08:50.012Z,39.10
2023-02-13T08:12:17.530Z,23.70
2023-02-13T08:15:47.054Z,83.70
2023-02-13T08:19:44.911Z,62.90
2023-02-13T08:23:16.493Z,51.10
2023-02-13T08:26:05.317Z,50.00
2023-02-13T08:29:25.675Z,43.80
2023-02-13T08:32:53.037Z,30.90
2023-02-13T08:35:46.709Z,38.30
2023-02-13T08:39:04.522Z,31.40
2023-02-13T08:42:04.211Z,28.70
2023-02-13T08:45:22.269Z,32.30
2023-02-13T08:48:20.557Z,32.00
2023-02-13T08:52:08.849Z,22.00
2023-02-13T08:55:49.360Z,19.90
2023-02-13T08:59:38.563Z,20.50
2023-02-13T09:03:10.591Z,17.20
2023-02-13T09:06:54.499Z,20.60
2023-02-13T09:10:33.751Z,17.20
2023-02-13T09:13:54.828Z,16.30
2023-02-13T09:17:42.965Z,18.30
2023-02-13T09:21:36.027Z,14.90
2023-02-13T09:59:23.183Z,23.10
2023-02-13T10:02:56.098Z,24.20
2023-02-13T10:07:11.188Z,19.10
2023-02-13T10:11:05.225Z,16.70
2023-02-13T10:29:19.387Z,14.30
2023-02-13T10:33:07.184Z,15.10
2023-02-13T10:36:20.415Z,19.90
2023-02-13T10:51:35.737Z,19.50
2023-02-13T10:55:52.029Z,20.00
2023-02-13T10:59:36.702Z,19.50
2023-02-13T11:11:17.945Z,16.00
2023-02-13T11:15:15.185Z,16.10
2023-02-13T11:18:52.890Z,14.90
2023-02-13T11:22:12.977Z,15.30
2023-02-13T11:26:01.528Z,14.00
2023-02-13T11:29:30.964Z,19.80
2023-02-13T11:33:22.397Z,16.40
2023-02-13T11:36:05.369Z,15.60
2023-02-13T11:39:38.133Z,15.90
2023-02-13T11:43:33.229Z,16.00
2023-02-13T11:47:17.704Z,16.90
2023-02-13T11:50:21.445Z,19.70
2023-02-13T11:53:53.462Z,14.80
2023-02-13T12:09:10.617Z,23.10
2023-02-13T12:12:51.344Z,16.00
2023-02-13T12:16:26.009Z,14.90
2023-02-13T12:20:24.002Z,14.30
2023-02-13T12:24:17.316Z,28.30
2023-02-13T12:40:41.058Z,24.10
2023-02-13T12:44:24.132Z,27.10
2023-02-13T12:59:38.543Z,16.10
2023-02-13T13:03:20.342Z,15.70
2023-02-13T13:06:41.800Z,17.40
2023-02-13T13:10:34.096Z,13.10
2023-02-13T13:13:31.985Z,12.60
2023-02-13T13:16:29.338Z,15.20
2023-02-13T13:19:29.301Z,17.30
2023-02-13T13:22:35.026Z,17.10
2023-02-13T13:25:43.818Z,17.50
2023-02-13T13:29:10.829Z,17.70
2023-02-13T13:32:55.449Z,21.30
2023-02-13T13:36:32.607Z,27.70
2023-02-13T13:40:26.301Z,25.10
2023-02-13T13:44:34.292Z,21.90
2023-02-13T13:56:10.075Z,26.80
2023-02-13T13:59:36.954Z,23.00
2023-02-13T14:03:26.759Z,26.20
2023-02-13T14:18:51.436Z,34.90
2023-02-13T14:22:39.113Z,27.80
2023-02-13T14:26:57.932Z,25.10
2023-02-13T14:30:13.788Z,25.40
2023-02-13T14:32:55.028Z,25.10
2023-02-13T14:40:49.877Z,42.50
2023-02-13T14:44:32.495Z,40.10
2023-02-13T15:00:27.428Z,43.20
2023-02-13T15:04:15.131Z,43.20
2023-02-13T15:07:48.461Z,38.10
2023-02-13T15:11:37.669Z,38.90
2023-02-13T15:31:01.227Z,63.00
2023-02-13T15:34:55.589Z,47.50
2023-02-13T15:38:42.855Z,47.40
2023-02-13T15:43:14.301Z,47.10
2023-02-13T15:46:54.782Z,39.00
2023-02-13T16:13:43.527Z,34.70
2023-02-13T16:17:33.107Z,38.80
2023-02-13T16:25:18.330Z,41.60
2023-02-13T16:29:10.238Z,47.30
2023-02-13T16:44:42.012Z,46.60
2023-02-13T16:48:30.335Z,46.50
2023-02-13T16:52:35.366Z,42.90
2023-02-13T17:04:19.797Z,41.20
2023-02-13T17:08:27.649Z,42.40
2023-02-13T17:12:17.022Z,47.70
2023-02-13T17:16:07.117Z,38.50
2023-02-13T17:19:57.118Z,41.70
2023-02-13T17:23:46.451Z,40.50
2023-02-13T18:12:33.277Z,44.90
2023-02-13T18:16:22.339Z,50.50
2023-02-13T18:20:05.688Z,59.10
2023-02-13T18:23:55.716Z,57.80
2023-02-13T18:27:45.865Z,66.00
2023-02-13T18:31:35.777Z,120.80
2023-02-13T18:35:20.374Z,106.50
2023-02-13T18:58:30.627Z,84.30
2023-02-13T19:02:20.211Z,58.10
2023-02-13T19:06:10.559Z,53.60
2023-02-13T19:09:54.205Z,55.10
2023-02-13T19:13:44.101Z,45.60
2023-02-13T19:17:33.752Z,49.60
2023-02-13T19:21:22.991Z,44.30
2023-02-13T19:25:12.035Z,43.80
2023-02-13T19:29:08.867Z,47.60
2023-02-13T19:59:52.116Z,91.50
2023-02-13T20:03:41.321Z,313.10
2023-02-13T20:07:33.193Z,298.90
2023-02-13T20:11:25.250Z,221.90
2023-02-13T20:15:14.419Z,130.70
2023-02-13T20:19:03.417Z,110.00
2023-02-13T20:22:53.539Z,146.20
2023-02-13T20:27:11.628Z,301.90
2023-02-13T20:31:01.510Z,277.10
2023-02-13T20:34:59.450Z,173.00
2023-02-13T20:38:48.804Z,152.90
2023-02-13T20:42:38.190Z,86.30
2023-02-13T20:46:27.582Z,65.50
2023-02-13T20:50:16.638Z,69.40
2023-02-13T20:54:05.961Z,118.90
2023-02-13T20:57:55.004Z,69.50
2023-02-13T21:01:44.355Z,74.60
2023-02-13T21:05:33.513Z,81.30
2023-02-13T21:09:22.489Z,80.70
2023-02-13T21:13:12.804Z,65.70
2023-02-13T21:17:05.027Z,53.60
2023-02-13T21:20:55.345Z,49.40
2023-02-13T21:39:41.808Z,121.00
2023-02-13T21:43:30.654Z,98.60
2023-02-13T21:47:19.859Z,63.70
2023-02-13T21:51:09.141Z,58.30
2023-02-13T21:54:58.608Z,59.70
2023-02-13T21:58:47.800Z,66.80
2023-02-13T22:02:37.198Z,80.80
2023-02-13T22:06:26.492Z,96.40
2023-02-13T22:10:14.568Z,151.80
2023-02-13T22:14:04.535Z,138.00
2023-02-13T22:18:21.111Z,149.40
2023-02-13T22:22:15.625Z,178.60
2023-02-13T22:26:04.322Z,155.50
2023-02-13T22:29:48.118Z,150.30
2023-02-13T22:33:39.132Z,92.70
2023-02-13T22:37:29.175Z,98.90
2023-02-13T22:41:20.308Z,105.40
2023-02-13T22:45:36.696Z,100.30
2023-02-13T22:49:25.740Z,103.00
2023-02-13T22:53:15.035Z,70.00
2023-02-13T22:57:03.906Z,57.60
2023-02-13T23:00:53.324Z,43.20
2023-02-13T23:04:42.559Z,55.50
2023-02-13T23:08:32.589Z,44.90
2023-02-13T23:12:21.157Z,51.70
2023-02-13T23:16:11.827Z,45.10
2023-02-13T23:20:02.038Z,46.60
2023-02-13T23:23:52.020Z,41.20
2023-02-13T23:27:43.088Z,45.00
2023-02-13T23:31:34.602Z,36.10
2023-02-13T23:35:25.193Z,44.30
2023-02-13T23:39:15.839Z,44.50
2023-02-13T23:43:04.791Z,44.40
2023-02-13T23:46:53.797Z,36.40
2023-02-13T23:50:42.835Z,43.40
2023-02-13T23:54:32.888Z,45.70
2023-02-13T23:58:23.929Z,44.90
